LDPL/PUY METAR and TAF weather

Enter ICAO airport designator
Station Type Date Time Source
LDPL METAR 2021/06/24 06:00 UTC NOAA

LDPL 240600Z 10007KT 070V130 CAVOK 26/22 Q1015 NOSIG


Station Type Date Time Source
LDPL Decoded METAR 2021/06/24 06:00 UTC NOAA

Pula Aerodrome, Croatia (LDPL) 45-54N 013-55E 63M
Jun 24, 2021 - 02:00 AM EDT / 2021.06.24 0600 UTC
Wind: from the E (100 degrees) at 8 MPH (7 KT) (direction variable):0
Visibility: greater than 7 mile(s):0
Temperature: 78 F (26 C)
Dew Point: 71 F (22 C)
Relative Humidity: 78%
Pressure (altimeter): 29.97 in. Hg (1015 hPa)
ob: LDPL 240600Z 10007KT 070V130 CAVOK 26/22 Q1015 NOSIG
cycle: 6

Station Type Date Time Source
LDPL TAF 2021/06/24 06:27 UTC NOAA

TAF LDPL 240525Z 2406/2506 09005KT CAVOK TX33/2413Z TN20/2503Z PROB40 2411/2418 23008KT PROB30
TEMPO 2418/2422 TS FEW065CB
BECMG 2422/2500 31008KT

Example: see airport list